sensor_id;sensor_type;location;lat;lon;timestamp;P1;durP1;ratioP1;P2;durP2;ratioP2
6665;SDS011;3369;49.906;8.598;2022-10-31T00:00:59;5.40;;;4.27;;
6665;SDS011;3369;49.906;8.598;2022-10-31T00:03:25;7.67;;;4.50;;
6665;SDS011;3369;49.906;8.598;2022-10-31T00:05:51;7.67;;;5.10;;
6665;SDS011;3369;49.906;8.598;2022-10-31T00:08:18;6.37;;;5.17;;
6665;SDS011;3369;49.906;8.598;2022-10-31T00:10:44;6.90;;;4.83;;
6665;SDS011;3369;49.906;8.598;2022-10-31T00:13:10;6.50;;;4.67;;
6665;SDS011;3369;49.906;8.598;2022-10-31T00:15:37;6.87;;;4.77;;
6665;SDS011;3369;49.906;8.598;2022-10-31T00:18:04;7.63;;;5.43;;
6665;SDS011;3369;49.906;8.598;2022-10-31T00:20:31;9.27;;;5.10;;
6665;SDS011;3369;49.906;8.598;2022-10-31T00:22:57;7.17;;;5.67;;
6665;SDS011;3369;49.906;8.598;2022-10-31T00:25:24;5.13;;;4.50;;
6665;SDS011;3369;49.906;8.598;2022-10-31T00:27:50;6.60;;;4.80;;
6665;SDS011;3369;49.906;8.598;2022-10-31T00:30:16;5.00;;;4.43;;
6665;SDS011;3369;49.906;8.598;2022-10-31T00:32:41;5.30;;;4.40;;
6665;SDS011;3369;49.906;8.598;2022-10-31T00:35:07;7.23;;;4.90;;
6665;SDS011;3369;49.906;8.598;2022-10-31T00:37:32;7.60;;;5.23;;
6665;SDS011;3369;49.906;8.598;2022-10-31T00:39:58;12.47;;;5.70;;
6665;SDS011;3369;49.906;8.598;2022-10-31T00:42:24;8.10;;;5.57;;
6665;SDS011;3369;49.906;8.598;2022-10-31T00:44:49;8.33;;;5.63;;
6665;SDS011;3369;49.906;8.598;2022-10-31T00:47:15;9.27;;;6.30;;
6665;SDS011;3369;49.906;8.598;2022-10-31T00:49:41;6.63;;;4.90;;
6665;SDS011;3369;49.906;8.598;2022-10-31T00:52:06;7.80;;;5.27;;
6665;SDS011;3369;49.906;8.598;2022-10-31T00:54:32;6.67;;;4.90;;
6665;SDS011;3369;49.906;8.598;2022-10-31T00:56:57;6.53;;;5.37;;
6665;SDS011;3369;49.906;8.598;2022-10-31T00:59:23;7.57;;;5.00;;
6665;SDS011;3369;49.906;8.598;2022-10-31T01:01:49;6.63;;;4.97;;
6665;SDS011;3369;49.906;8.598;2022-10-31T01:04:14;7.30;;;5.00;;
6665;SDS011;3369;49.906;8.598;2022-10-31T01:06:40;6.37;;;5.10;;
6665;SDS011;3369;49.906;8.598;2022-10-31T01:09:06;5.30;;;4.50;;
6665;SDS011;3369;49.906;8.598;2022-10-31T01:11:32;6.93;;;4.60;;
6665;SDS011;3369;49.906;8.598;2022-10-31T01:13:58;5.20;;;4.70;;
6665;SDS011;3369;49.906;8.598;2022-10-31T01:16:24;6.40;;;4.60;;
6665;SDS011;3369;49.906;8.598;2022-10-31T01:18:51;5.40;;;4.47;;
6665;SDS011;3369;49.906;8.598;2022-10-31T01:21:19;5.53;;;4.53;;
6665;SDS011;3369;49.906;8.598;2022-10-31T01:23:46;6.63;;;4.83;;
6665;SDS011;3369;49.906;8.598;2022-10-31T01:26:13;5.53;;;4.50;;
6665;SDS011;3369;49.906;8.598;2022-10-31T01:28:45;6.47;;;5.00;;
6665;SDS011;3369;49.906;8.598;2022-10-31T01:31:12;6.87;;;5.40;;
6665;SDS011;3369;49.906;8.598;2022-10-31T01:33:38;5.70;;;4.63;;
6665;SDS011;3369;49.906;8.598;2022-10-31T01:36:14;6.93;;;5.50;;
6665;SDS011;3369;49.906;8.598;2022-10-31T01:38:46;9.73;;;4.97;;
6665;SDS011;3369;49.906;8.598;2022-10-31T01:41:14;7.17;;;5.53;;
6665;SDS011;3369;49.906;8.598;2022-10-31T01:43:55;13.60;;;6.23;;
6665;SDS011;3369;49.906;8.598;2022-10-31T01:49:00;7.17;;;5.07;;
6665;SDS011;3369;49.906;8.598;2022-10-31T01:51:30;6.50;;;5.00;;
6665;SDS011;3369;49.906;8.598;2022-10-31T01:54:00;7.50;;;4.47;;
6665;SDS011;3369;49.906;8.598;2022-10-31T01:56:29;6.47;;;4.70;;
6665;SDS011;3369;49.906;8.598;2022-10-31T01:58:57;5.57;;;4.83;;
6665;SDS011;3369;49.906;8.598;2022-10-31T02:01:25;6.07;;;4.63;;
6665;SDS011;3369;49.906;8.598;2022-10-31T02:03:52;7.23;;;5.27;;
6665;SDS011;3369;49.906;8.598;2022-10-31T02:06:21;6.03;;;4.70;;
6665;SDS011;3369;49.906;8.598;2022-10-31T02:08:58;4.83;;;4.27;;
6665;SDS011;3369;49.906;8.598;2022-10-31T02:11:25;6.33;;;5.00;;
6665;SDS011;3369;49.906;8.598;2022-10-31T02:13:53;5.90;;;4.83;;
6665;SDS011;3369;49.906;8.598;2022-10-31T02:16:19;5.60;;;4.93;;
6665;SDS011;3369;49.906;8.598;2022-10-31T02:39:44;6.33;;;5.23;;
6665;SDS011;3369;49.906;8.598;2022-10-31T02:42:08;7.00;;;5.03;;
6665;SDS011;3369;49.906;8.598;2022-10-31T02:47:33;6.47;;;4.67;;
6665;SDS011;3369;49.906;8.598;2022-10-31T02:52:32;6.13;;;5.10;;
6665;SDS011;3369;49.906;8.598;2022-10-31T02:55:09;6.60;;;5.07;;
6665;SDS011;3369;49.906;8.598;2022-10-31T02:57:36;5.47;;;4.70;;
6665;SDS011;3369;49.906;8.598;2022-10-31T03:00:06;9.63;;;6.00;;
6665;SDS011;3369;49.906;8.598;2022-10-31T03:15:58;6.70;;;4.70;;
6665;SDS011;3369;49.906;8.598;2022-10-31T03:18:34;6.83;;;4.50;;
6665;SDS011;3369;49.906;8.598;2022-10-31T03:21:09;6.90;;;5.00;;
6665;SDS011;3369;49.906;8.598;2022-10-31T03:23:38;6.17;;;5.10;;
6665;SDS011;3369;49.906;8.598;2022-10-31T03:26:05;5.30;;;4.80;;
6665;SDS011;3369;49.906;8.598;2022-10-31T03:28:36;5.83;;;4.67;;
6665;SDS011;3369;49.906;8.598;2022-10-31T03:31:11;5.80;;;4.80;;
6665;SDS011;3369;49.906;8.598;2022-10-31T03:33:40;5.77;;;4.40;;
6665;SDS011;3369;49.906;8.598;2022-10-31T03:36:08;5.60;;;4.37;;
6665;SDS011;3369;49.906;8.598;2022-10-31T03:38:36;5.60;;;4.77;;
6665;SDS011;3369;49.906;8.598;2022-10-31T03:41:04;7.10;;;4.40;;
6665;SDS011;3369;49.906;8.598;2022-10-31T03:43:36;6.27;;;4.23;;
6665;SDS011;3369;49.906;8.598;2022-10-31T03:46:08;5.00;;;4.13;;
6665;SDS011;3369;49.906;8.598;2022-10-31T03:48:34;5.63;;;4.10;;
6665;SDS011;3369;49.906;8.598;2022-10-31T03:51:06;5.27;;;3.77;;
6665;SDS011;3369;49.906;8.598;2022-10-31T03:54:03;5.33;;;4.03;;
6665;SDS011;3369;49.906;8.598;2022-10-31T03:56:41;4.47;;;3.93;;
6665;SDS011;3369;49.906;8.598;2022-10-31T04:00:05;4.97;;;3.83;;
6665;SDS011;3369;49.906;8.598;2022-10-31T04:02:16;5.00;;;3.73;;
6665;SDS011;3369;49.906;8.598;2022-10-31T04:04:44;5.23;;;3.83;;
6665;SDS011;3369;49.906;8.598;2022-10-31T04:07:10;3.83;;;3.53;;
6665;SDS011;3369;49.906;8.598;2022-10-31T04:09:38;4.07;;;3.60;;
6665;SDS011;3369;49.906;8.598;2022-10-31T04:12:07;3.90;;;3.50;;
6665;SDS011;3369;49.906;8.598;2022-10-31T04:14:37;8.30;;;3.60;;
6665;SDS011;3369;49.906;8.598;2022-10-31T04:17:07;4.60;;;3.60;;
6665;SDS011;3369;49.906;8.598;2022-10-31T04:19:38;5.33;;;4.00;;
6665;SDS011;3369;49.906;8.598;2022-10-31T04:22:04;5.00;;;4.20;;
6665;SDS011;3369;49.906;8.598;2022-10-31T04:24:30;5.27;;;3.60;;
6665;SDS011;3369;49.906;8.598;2022-10-31T04:26:55;7.17;;;4.00;;
6665;SDS011;3369;49.906;8.598;2022-10-31T04:29:21;4.87;;;3.90;;
6665;SDS011;3369;49.906;8.598;2022-10-31T04:31:46;4.63;;;3.87;;
6665;SDS011;3369;49.906;8.598;2022-10-31T04:34:12;4.50;;;3.87;;
6665;SDS011;3369;49.906;8.598;2022-10-31T04:36:38;4.67;;;3.60;;
6665;SDS011;3369;49.906;8.598;2022-10-31T04:39:03;4.73;;;4.17;;
6665;SDS011;3369;49.906;8.598;2022-10-31T04:41:29;4.67;;;4.03;;
6665;SDS011;3369;49.906;8.598;2022-10-31T04:43:54;4.20;;;3.80;;
6665;SDS011;3369;49.906;8.598;2022-10-31T04:46:20;5.07;;;3.83;;
6665;SDS011;3369;49.906;8.598;2022-10-31T04:48:46;5.87;;;3.93;;
6665;SDS011;3369;49.906;8.598;2022-10-31T04:51:11;5.53;;;3.77;;
6665;SDS011;3369;49.906;8.598;2022-10-31T04:53:37;4.93;;;3.80;;
6665;SDS011;3369;49.906;8.598;2022-10-31T04:56:02;5.47;;;4.47;;
6665;SDS011;3369;49.906;8.598;2022-10-31T04:58:28;5.10;;;4.33;;
6665;SDS011;3369;49.906;8.598;2022-10-31T05:00:54;4.70;;;3.73;;
6665;SDS011;3369;49.906;8.598;2022-10-31T05:03:20;5.43;;;3.83;;
6665;SDS011;3369;49.906;8.598;2022-10-31T05:05:46;4.47;;;4.07;;
6665;SDS011;3369;49.906;8.598;2022-10-31T05:08:12;4.30;;;3.47;;
6665;SDS011;3369;49.906;8.598;2022-10-31T05:10:38;6.60;;;3.80;;
6665;SDS011;3369;49.906;8.598;2022-10-31T05:13:04;5.33;;;3.57;;
6665;SDS011;3369;49.906;8.598;2022-10-31T05:15:30;6.90;;;3.60;;
6665;SDS011;3369;49.906;8.598;2022-10-31T05:17:56;4.90;;;3.80;;
6665;SDS011;3369;49.906;8.598;2022-10-31T05:20:24;5.87;;;3.90;;
6665;SDS011;3369;49.906;8.598;2022-10-31T05:22:51;5.07;;;4.00;;
6665;SDS011;3369;49.906;8.598;2022-10-31T05:25:19;5.40;;;3.87;;
6665;SDS011;3369;49.906;8.598;2022-10-31T05:27:47;4.73;;;3.83;;
6665;SDS011;3369;49.906;8.598;2022-10-31T05:30:16;4.63;;;3.93;;
6665;SDS011;3369;49.906;8.598;2022-10-31T05:32:46;6.17;;;4.67;;
6665;SDS011;3369;49.906;8.598;2022-10-31T05:35:14;7.23;;;4.93;;
6665;SDS011;3369;49.906;8.598;2022-10-31T05:37:41;7.33;;;4.77;;
6665;SDS011;3369;49.906;8.598;2022-10-31T05:40:07;5.33;;;4.47;;
6665;SDS011;3369;49.906;8.598;2022-10-31T05:42:35;4.40;;;3.93;;
6665;SDS011;3369;49.906;8.598;2022-10-31T05:45:01;4.90;;;3.93;;
6665;SDS011;3369;49.906;8.598;2022-10-31T05:47:26;4.43;;;4.00;;
6665;SDS011;3369;49.906;8.598;2022-10-31T05:49:52;5.53;;;4.40;;
6665;SDS011;3369;49.906;8.598;2022-10-31T05:52:17;4.50;;;4.10;;
6665;SDS011;3369;49.906;8.598;2022-10-31T05:54:43;7.03;;;4.77;;
6665;SDS011;3369;49.906;8.598;2022-10-31T05:57:09;8.37;;;5.67;;
6665;SDS011;3369;49.906;8.598;2022-10-31T05:59:35;6.20;;;4.50;;
6665;SDS011;3369;49.906;8.598;2022-10-31T06:02:00;4.93;;;4.43;;
6665;SDS011;3369;49.906;8.598;2022-10-31T06:04:26;4.60;;;4.10;;
6665;SDS011;3369;49.906;8.598;2022-10-31T06:06:52;4.40;;;3.93;;
6665;SDS011;3369;49.906;8.598;2022-10-31T06:09:17;5.00;;;4.27;;
6665;SDS011;3369;49.906;8.598;2022-10-31T06:11:43;4.57;;;4.17;;
6665;SDS011;3369;49.906;8.598;2022-10-31T06:14:08;5.43;;;4.13;;
6665;SDS011;3369;49.906;8.598;2022-10-31T06:16:34;5.10;;;4.60;;
6665;SDS011;3369;49.906;8.598;2022-10-31T06:19:00;5.70;;;4.50;;
6665;SDS011;3369;49.906;8.598;2022-10-31T06:21:25;7.10;;;4.73;;
6665;SDS011;3369;49.906;8.598;2022-10-31T06:23:51;6.47;;;4.63;;
6665;SDS011;3369;49.906;8.598;2022-10-31T06:26:17;8.80;;;5.40;;
6665;SDS011;3369;49.906;8.598;2022-10-31T06:28:42;4.97;;;4.47;;
6665;SDS011;3369;49.906;8.598;2022-10-31T06:31:08;6.87;;;5.43;;
6665;SDS011;3369;49.906;8.598;2022-10-31T06:33:33;7.03;;;5.23;;
6665;SDS011;3369;49.906;8.598;2022-10-31T06:35:59;5.17;;;3.93;;
6665;SDS011;3369;49.906;8.598;2022-10-31T06:38:26;5.20;;;4.70;;
6665;SDS011;3369;49.906;8.598;2022-10-31T06:40:52;6.10;;;4.13;;
6665;SDS011;3369;49.906;8.598;2022-10-31T06:43:19;5.93;;;4.50;;
6665;SDS011;3369;49.906;8.598;2022-10-31T06:45:45;4.87;;;4.37;;
6665;SDS011;3369;49.906;8.598;2022-10-31T06:48:11;7.10;;;4.70;;
6665;SDS011;3369;49.906;8.598;2022-10-31T06:50:36;6.30;;;4.50;;
6665;SDS011;3369;49.906;8.598;2022-10-31T06:53:02;4.40;;;3.87;;
6665;SDS011;3369;49.906;8.598;2022-10-31T06:55:28;4.80;;;4.27;;
6665;SDS011;3369;49.906;8.598;2022-10-31T06:57:58;7.03;;;4.70;;
6665;SDS011;3369;49.906;8.598;2022-10-31T07:00:25;6.10;;;5.00;;
6665;SDS011;3369;49.906;8.598;2022-10-31T07:02:56;5.83;;;4.30;;
6665;SDS011;3369;49.906;8.598;2022-10-31T07:05:26;4.50;;;4.10;;
6665;SDS011;3369;49.906;8.598;2022-10-31T07:07:59;5.27;;;4.40;;
6665;SDS011;3369;49.906;8.598;2022-10-31T07:10:28;4.93;;;4.53;;
6665;SDS011;3369;49.906;8.598;2022-10-31T07:12:56;5.13;;;4.57;;
6665;SDS011;3369;49.906;8.598;2022-10-31T07:15:23;5.30;;;4.53;;
6665;SDS011;3369;49.906;8.598;2022-10-31T07:17:49;4.47;;;3.97;;
6665;SDS011;3369;49.906;8.598;2022-10-31T07:20:15;7.27;;;5.00;;
6665;SDS011;3369;49.906;8.598;2022-10-31T07:22:41;6.83;;;5.13;;
6665;SDS011;3369;49.906;8.598;2022-10-31T07:25:07;7.17;;;5.10;;
6665;SDS011;3369;49.906;8.598;2022-10-31T07:27:37;6.47;;;5.43;;
6665;SDS011;3369;49.906;8.598;2022-10-31T07:30:03;9.07;;;5.80;;
6665;SDS011;3369;49.906;8.598;2022-10-31T07:32:43;7.97;;;5.87;;
6665;SDS011;3369;49.906;8.598;2022-10-31T07:35:21;5.30;;;4.73;;
6665;SDS011;3369;49.906;8.598;2022-10-31T07:37:51;5.60;;;4.73;;
6665;SDS011;3369;49.906;8.598;2022-10-31T07:40:17;5.77;;;4.50;;
6665;SDS011;3369;49.906;8.598;2022-10-31T07:42:44;5.30;;;4.67;;
6665;SDS011;3369;49.906;8.598;2022-10-31T07:45:13;4.77;;;4.30;;
6665;SDS011;3369;49.906;8.598;2022-10-31T07:47:49;5.90;;;4.90;;
6665;SDS011;3369;49.906;8.598;2022-10-31T07:50:17;5.30;;;3.90;;
6665;SDS011;3369;49.906;8.598;2022-10-31T07:53:01;4.87;;;4.47;;
6665;SDS011;3369;49.906;8.598;2022-10-31T07:55:27;5.23;;;4.30;;
6665;SDS011;3369;49.906;8.598;2022-10-31T07:57:58;5.90;;;3.87;;
6665;SDS011;3369;49.906;8.598;2022-10-31T08:00:29;6.93;;;4.37;;
6665;SDS011;3369;49.906;8.598;2022-10-31T08:02:56;5.87;;;4.47;;
6665;SDS011;3369;49.906;8.598;2022-10-31T08:05:23;5.40;;;4.50;;
6665;SDS011;3369;49.906;8.598;2022-10-31T08:07:49;4.77;;;4.17;;
6665;SDS011;3369;49.906;8.598;2022-10-31T08:10:14;5.20;;;3.80;;
6665;SDS011;3369;49.906;8.598;2022-10-31T08:12:40;4.27;;;3.87;;
6665;SDS011;3369;49.906;8.598;2022-10-31T08:15:06;8.63;;;4.17;;
6665;SDS011;3369;49.906;8.598;2022-10-31T08:17:34;4.17;;;3.77;;
6665;SDS011;3369;49.906;8.598;2022-10-31T08:20:01;4.67;;;3.70;;
6665;SDS011;3369;49.906;8.598;2022-10-31T08:22:27;4.77;;;3.93;;
6665;SDS011;3369;49.906;8.598;2022-10-31T08:24:52;4.07;;;3.63;;
6665;SDS011;3369;49.906;8.598;2022-10-31T08:27:18;4.47;;;4.07;;
6665;SDS011;3369;49.906;8.598;2022-10-31T08:29:43;6.13;;;3.73;;
6665;SDS011;3369;49.906;8.598;2022-10-31T08:32:09;4.40;;;3.80;;
6665;SDS011;3369;49.906;8.598;2022-10-31T08:34:35;4.17;;;3.50;;
6665;SDS011;3369;49.906;8.598;2022-10-31T08:37:00;4.07;;;3.67;;
6665;SDS011;3369;49.906;8.598;2022-10-31T08:39:26;4.67;;;3.87;;
6665;SDS011;3369;49.906;8.598;2022-10-31T08:41:51;5.27;;;3.97;;
6665;SDS011;3369;49.906;8.598;2022-10-31T08:44:17;5.33;;;4.37;;
6665;SDS011;3369;49.906;8.598;2022-10-31T08:46:43;4.90;;;4.03;;
6665;SDS011;3369;49.906;8.598;2022-10-31T08:49:08;3.77;;;3.40;;
6665;SDS011;3369;49.906;8.598;2022-10-31T08:51:34;5.87;;;4.17;;
6665;SDS011;3369;49.906;8.598;2022-10-31T08:54:00;6.53;;;3.97;;
6665;SDS011;3369;49.906;8.598;2022-10-31T08:56:25;6.00;;;4.40;;
6665;SDS011;3369;49.906;8.598;2022-10-31T08:58:52;4.77;;;3.77;;
6665;SDS011;3369;49.906;8.598;2022-10-31T09:01:18;7.57;;;4.40;;
6665;SDS011;3369;49.906;8.598;2022-10-31T09:03:44;8.23;;;4.30;;
6665;SDS011;3369;49.906;8.598;2022-10-31T09:06:10;5.87;;;4.60;;
6665;SDS011;3369;49.906;8.598;2022-10-31T09:08:35;4.97;;;3.80;;
6665;SDS011;3369;49.906;8.598;2022-10-31T09:11:02;4.20;;;3.80;;
6665;SDS011;3369;49.906;8.598;2022-10-31T09:13:28;5.60;;;4.40;;
6665;SDS011;3369;49.906;8.598;2022-10-31T09:15:55;4.97;;;3.90;;
6665;SDS011;3369;49.906;8.598;2022-10-31T09:18:22;5.00;;;4.17;;
6665;SDS011;3369;49.906;8.598;2022-10-31T09:20:49;6.03;;;4.27;;
6665;SDS011;3369;49.906;8.598;2022-10-31T09:23:16;5.97;;;4.10;;
6665;SDS011;3369;49.906;8.598;2022-10-31T09:25:44;4.53;;;4.17;;
6665;SDS011;3369;49.906;8.598;2022-10-31T09:28:12;6.70;;;4.80;;
6665;SDS011;3369;49.906;8.598;2022-10-31T09:30:39;6.40;;;4.47;;
6665;SDS011;3369;49.906;8.598;2022-10-31T09:33:06;4.50;;;4.10;;
6665;SDS011;3369;49.906;8.598;2022-10-31T09:35:36;4.70;;;4.20;;
6665;SDS011;3369;49.906;8.598;2022-10-31T09:38:03;4.80;;;4.30;;
6665;SDS011;3369;49.906;8.598;2022-10-31T09:40:40;7.17;;;4.63;;
6665;SDS011;3369;49.906;8.598;2022-10-31T09:48:11;5.33;;;4.47;;
6665;SDS011;3369;49.906;8.598;2022-10-31T09:50:46;6.63;;;4.67;;
6665;SDS011;3369;49.906;8.598;2022-10-31T09:55:47;6.63;;;4.40;;
6665;SDS011;3369;49.906;8.598;2022-10-31T09:58:20;5.80;;;4.17;;
6665;SDS011;3369;49.906;8.598;2022-10-31T10:00:50;4.87;;;4.37;;
6665;SDS011;3369;49.906;8.598;2022-10-31T10:06:06;4.53;;;4.13;;
6665;SDS011;3369;49.906;8.598;2022-10-31T10:08:43;5.50;;;4.60;;
6665;SDS011;3369;49.906;8.598;2022-10-31T10:20:02;5.97;;;4.20;;
6665;SDS011;3369;49.906;8.598;2022-10-31T10:32:55;5.27;;;4.57;;
6665;SDS011;3369;49.906;8.598;2022-10-31T10:35:29;5.17;;;4.20;;
6665;SDS011;3369;49.906;8.598;2022-10-31T10:40:51;7.07;;;5.50;;
6665;SDS011;3369;49.906;8.598;2022-10-31T10:43:23;4.90;;;4.40;;
6665;SDS011;3369;49.906;8.598;2022-10-31T10:51:47;6.63;;;5.00;;
6665;SDS011;3369;49.906;8.598;2022-10-31T10:59:58;5.07;;;4.00;;
6665;SDS011;3369;49.906;8.598;2022-10-31T11:02:27;7.13;;;4.07;;
6665;SDS011;3369;49.906;8.598;2022-10-31T11:04:58;8.60;;;4.90;;
6665;SDS011;3369;49.906;8.598;2022-10-31T11:07:25;4.83;;;3.87;;
6665;SDS011;3369;49.906;8.598;2022-10-31T11:10:03;9.73;;;4.10;;
6665;SDS011;3369;49.906;8.598;2022-10-31T11:12:39;4.23;;;3.77;;
6665;SDS011;3369;49.906;8.598;2022-10-31T11:15:07;4.80;;;3.53;;
6665;SDS011;3369;49.906;8.598;2022-10-31T11:17:48;6.47;;;4.50;;
6665;SDS011;3369;49.906;8.598;2022-10-31T11:22:43;11.40;;;5.17;;
6665;SDS011;3369;49.906;8.598;2022-10-31T11:27:44;4.50;;;4.00;;
6665;SDS011;3369;49.906;8.598;2022-10-31T11:30:12;4.13;;;3.73;;
6665;SDS011;3369;49.906;8.598;2022-10-31T11:32:57;4.47;;;3.47;;
6665;SDS011;3369;49.906;8.598;2022-10-31T11:35:23;5.10;;;3.53;;
6665;SDS011;3369;49.906;8.598;2022-10-31T11:37:50;4.87;;;3.73;;
6665;SDS011;3369;49.906;8.598;2022-10-31T11:40:24;4.20;;;3.60;;
6665;SDS011;3369;49.906;8.598;2022-10-31T11:42:51;4.03;;;3.33;;
6665;SDS011;3369;49.906;8.598;2022-10-31T11:47:52;4.00;;;3.60;;
6665;SDS011;3369;49.906;8.598;2022-10-31T11:50:24;4.13;;;3.30;;
6665;SDS011;3369;49.906;8.598;2022-10-31T11:52:52;4.33;;;3.10;;
6665;SDS011;3369;49.906;8.598;2022-10-31T11:55:35;3.33;;;3.03;;
6665;SDS011;3369;49.906;8.598;2022-10-31T11:58:02;4.87;;;3.20;;
6665;SDS011;3369;49.906;8.598;2022-10-31T12:01:20;3.50;;;3.20;;
6665;SDS011;3369;49.906;8.598;2022-10-31T12:08:33;3.50;;;3.20;;
6665;SDS011;3369;49.906;8.598;2022-10-31T12:30:25;4.00;;;2.90;;
6665;SDS011;3369;49.906;8.598;2022-10-31T12:35:55;2.90;;;2.70;;
6665;SDS011;3369;49.906;8.598;2022-10-31T12:55:36;3.90;;;3.25;;
6665;SDS011;3369;49.906;8.598;2022-10-31T13:01:12;4.30;;;3.03;;
6665;SDS011;3369;49.906;8.598;2022-10-31T13:07:09;4.13;;;3.33;;
6665;SDS011;3369;49.906;8.598;2022-10-31T13:09:20;3.47;;;3.17;;
6665;SDS011;3369;49.906;8.598;2022-10-31T13:11:56;3.87;;;3.43;;
6665;SDS011;3369;49.906;8.598;2022-10-31T13:14:27;2.90;;;2.60;;
6665;SDS011;3369;49.906;8.598;2022-10-31T13:16:58;3.67;;;3.03;;
6665;SDS011;3369;49.906;8.598;2022-10-31T13:19:28;3.57;;;3.20;;
6665;SDS011;3369;49.906;8.598;2022-10-31T13:22:12;3.60;;;3.30;;
6665;SDS011;3369;49.906;8.598;2022-10-31T13:24:59;5.13;;;3.33;;
6665;SDS011;3369;49.906;8.598;2022-10-31T13:27:38;2.97;;;2.67;;
6665;SDS011;3369;49.906;8.598;2022-10-31T13:30:19;3.10;;;2.73;;
6665;SDS011;3369;49.906;8.598;2022-10-31T13:32:47;2.97;;;2.70;;
6665;SDS011;3369;49.906;8.598;2022-10-31T13:35:23;4.03;;;2.53;;
6665;SDS011;3369;49.906;8.598;2022-10-31T13:40:46;2.57;;;2.37;;
6665;SDS011;3369;49.906;8.598;2022-10-31T13:45:56;2.20;;;2.00;;
6665;SDS011;3369;49.906;8.598;2022-10-31T13:50:58;3.03;;;2.57;;
6665;SDS011;3369;49.906;8.598;2022-10-31T13:56:30;2.67;;;2.47;;
6665;SDS011;3369;49.906;8.598;2022-10-31T13:59:02;3.43;;;2.70;;
6665;SDS011;3369;49.906;8.598;2022-10-31T14:01:32;4.07;;;3.40;;
6665;SDS011;3369;49.906;8.598;2022-10-31T14:04:05;3.17;;;2.60;;
6665;SDS011;3369;49.906;8.598;2022-10-31T14:06:40;3.77;;;3.40;;
6665;SDS011;3369;49.906;8.598;2022-10-31T14:09:29;2.87;;;2.60;;
6665;SDS011;3369;49.906;8.598;2022-10-31T14:11:59;4.60;;;3.27;;
6665;SDS011;3369;49.906;8.598;2022-10-31T14:14:30;3.97;;;2.90;;
6665;SDS011;3369;49.906;8.598;2022-10-31T14:17:00;3.73;;;2.67;;
6665;SDS011;3369;49.906;8.598;2022-10-31T14:19:27;3.93;;;2.97;;
6665;SDS011;3369;49.906;8.598;2022-10-31T14:21:52;3.23;;;2.87;;
6665;SDS011;3369;49.906;8.598;2022-10-31T14:26:51;6.37;;;3.53;;
6665;SDS011;3369;49.906;8.598;2022-10-31T14:54:51;4.23;;;3.20;;
6665;SDS011;3369;49.906;8.598;2022-10-31T14:57:23;3.60;;;2.93;;
6665;SDS011;3369;49.906;8.598;2022-10-31T14:59:58;3.17;;;2.60;;
6665;SDS011;3369;49.906;8.598;2022-10-31T15:02:41;2.90;;;2.70;;
6665;SDS011;3369;49.906;8.598;2022-10-31T15:05:15;2.83;;;2.57;;
6665;SDS011;3369;49.906;8.598;2022-10-31T15:07:51;2.83;;;2.63;;
6665;SDS011;3369;49.906;8.598;2022-10-31T15:10:23;2.90;;;2.70;;
6665;SDS011;3369;49.906;8.598;2022-10-31T15:13:08;4.30;;;3.00;;
6665;SDS011;3369;49.906;8.598;2022-10-31T15:15:35;3.00;;;2.47;;
6665;SDS011;3369;49.906;8.598;2022-10-31T15:18:03;2.40;;;2.20;;
6665;SDS011;3369;49.906;8.598;2022-10-31T15:20:31;2.90;;;2.60;;
6665;SDS011;3369;49.906;8.598;2022-10-31T15:23:03;2.57;;;2.37;;
6665;SDS011;3369;49.906;8.598;2022-10-31T15:25:30;2.63;;;2.43;;
6665;SDS011;3369;49.906;8.598;2022-10-31T15:27:58;2.80;;;2.60;;
6665;SDS011;3369;49.906;8.598;2022-10-31T15:30:25;2.53;;;2.33;;
6665;SDS011;3369;49.906;8.598;2022-10-31T15:32:52;2.50;;;2.30;;
6665;SDS011;3369;49.906;8.598;2022-10-31T15:35:23;2.60;;;2.40;;
6665;SDS011;3369;49.906;8.598;2022-10-31T15:37:53;3.27;;;2.97;;
6665;SDS011;3369;49.906;8.598;2022-10-31T15:40:21;4.07;;;3.30;;
6665;SDS011;3369;49.906;8.598;2022-10-31T15:42:59;3.20;;;2.60;;
6665;SDS011;3369;49.906;8.598;2022-10-31T15:45:28;3.00;;;2.80;;
6665;SDS011;3369;49.906;8.598;2022-10-31T15:48:02;4.50;;;3.17;;
6665;SDS011;3369;49.906;8.598;2022-10-31T15:50:38;3.00;;;2.80;;
6665;SDS011;3369;49.906;8.598;2022-10-31T15:53:06;3.10;;;2.80;;
6665;SDS011;3369;49.906;8.598;2022-10-31T15:55:49;3.23;;;2.80;;
6665;SDS011;3369;49.906;8.598;2022-10-31T15:58:23;5.13;;;2.63;;
6665;SDS011;3369;49.906;8.598;2022-10-31T16:04:19;4.50;;;3.33;;
6665;SDS011;3369;49.906;8.598;2022-10-31T16:07:00;4.37;;;3.30;;
6665;SDS011;3369;49.906;8.598;2022-10-31T16:12:50;3.80;;;3.37;;
6665;SDS011;3369;49.906;8.598;2022-10-31T16:15:17;3.90;;;3.20;;
6665;SDS011;3369;49.906;8.598;2022-10-31T16:17:49;4.57;;;3.10;;
6665;SDS011;3369;49.906;8.598;2022-10-31T16:20:20;4.10;;;3.47;;
6665;SDS011;3369;49.906;8.598;2022-10-31T16:22:50;4.47;;;4.00;;
6665;SDS011;3369;49.906;8.598;2022-10-31T16:25:28;4.50;;;3.73;;
6665;SDS011;3369;49.906;8.598;2022-10-31T16:28:02;5.53;;;4.13;;
6665;SDS011;3369;49.906;8.598;2022-10-31T16:30:38;7.63;;;3.93;;
6665;SDS011;3369;49.906;8.598;2022-10-31T16:33:20;5.57;;;3.63;;
6665;SDS011;3369;49.906;8.598;2022-10-31T16:36:01;6.53;;;4.80;;
6665;SDS011;3369;49.906;8.598;2022-10-31T16:38:45;5.37;;;4.17;;
6665;SDS011;3369;49.906;8.598;2022-10-31T16:41:11;9.57;;;4.80;;
6665;SDS011;3369;49.906;8.598;2022-10-31T16:43:36;5.83;;;3.83;;
6665;SDS011;3369;49.906;8.598;2022-10-31T16:46:02;4.53;;;3.93;;
6665;SDS011;3369;49.906;8.598;2022-10-31T16:48:29;5.97;;;3.67;;
6665;SDS011;3369;49.906;8.598;2022-10-31T16:50:54;5.70;;;4.33;;
6665;SDS011;3369;49.906;8.598;2022-10-31T16:53:20;5.93;;;4.03;;
6665;SDS011;3369;49.906;8.598;2022-10-31T16:58:23;7.97;;;3.83;;
6665;SDS011;3369;49.906;8.598;2022-10-31T17:00:51;8.47;;;4.17;;
6665;SDS011;3369;49.906;8.598;2022-10-31T17:03:17;5.93;;;4.00;;
6665;SDS011;3369;49.906;8.598;2022-10-31T17:05:43;5.23;;;3.70;;
6665;SDS011;3369;49.906;8.598;2022-10-31T17:08:09;5.67;;;3.60;;
6665;SDS011;3369;49.906;8.598;2022-10-31T17:10:36;3.20;;;2.90;;
6665;SDS011;3369;49.906;8.598;2022-10-31T17:13:02;3.77;;;3.47;;
6665;SDS011;3369;49.906;8.598;2022-10-31T17:15:52;5.07;;;3.50;;
6665;SDS011;3369;49.906;8.598;2022-10-31T17:18:19;5.13;;;3.97;;
6665;SDS011;3369;49.906;8.598;2022-10-31T17:20:44;4.03;;;3.60;;
6665;SDS011;3369;49.906;8.598;2022-10-31T17:23:11;5.73;;;4.80;;
6665;SDS011;3369;49.906;8.598;2022-10-31T17:25:38;7.47;;;5.43;;
6665;SDS011;3369;49.906;8.598;2022-10-31T17:28:05;13.80;;;10.90;;
6665;SDS011;3369;49.906;8.598;2022-10-31T17:30:31;12.07;;;7.57;;
6665;SDS011;3369;49.906;8.598;2022-10-31T17:32:58;9.80;;;7.57;;
6665;SDS011;3369;49.906;8.598;2022-10-31T17:35:24;11.37;;;8.70;;
6665;SDS011;3369;49.906;8.598;2022-10-31T17:37:50;10.63;;;7.97;;
6665;SDS011;3369;49.906;8.598;2022-10-31T17:40:17;9.80;;;7.30;;
6665;SDS011;3369;49.906;8.598;2022-10-31T17:42:51;7.60;;;6.80;;
6665;SDS011;3369;49.906;8.598;2022-10-31T17:45:19;6.60;;;5.60;;
6665;SDS011;3369;49.906;8.598;2022-10-31T17:47:46;5.70;;;5.13;;
6665;SDS011;3369;49.906;8.598;2022-10-31T17:50:14;5.82;;;5.18;;
6665;SDS011;3369;49.906;8.598;2022-10-31T17:52:40;6.20;;;4.80;;
6665;SDS011;3369;49.906;8.598;2022-10-31T17:55:06;5.73;;;4.97;;
6665;SDS011;3369;49.906;8.598;2022-10-31T17:57:33;6.20;;;4.83;;
6665;SDS011;3369;49.906;8.598;2022-10-31T18:00:00;7.27;;;4.93;;
6665;SDS011;3369;49.906;8.598;2022-10-31T18:02:26;6.27;;;4.97;;
6665;SDS011;3369;49.906;8.598;2022-10-31T18:04:52;9.67;;;5.80;;
6665;SDS011;3369;49.906;8.598;2022-10-31T18:07:18;4.93;;;4.33;;
6665;SDS011;3369;49.906;8.598;2022-10-31T18:09:47;7.07;;;4.73;;
6665;SDS011;3369;49.906;8.598;2022-10-31T18:12:14;4.77;;;3.83;;
6665;SDS011;3369;49.906;8.598;2022-10-31T18:14:40;5.73;;;4.23;;
6665;SDS011;3369;49.906;8.598;2022-10-31T18:17:06;4.47;;;4.07;;
6665;SDS011;3369;49.906;8.598;2022-10-31T18:19:32;4.97;;;3.83;;
6665;SDS011;3369;49.906;8.598;2022-10-31T18:21:58;4.70;;;3.90;;
6665;SDS011;3369;49.906;8.598;2022-10-31T18:24:23;5.80;;;4.33;;
6665;SDS011;3369;49.906;8.598;2022-10-31T18:26:49;6.37;;;4.80;;
6665;SDS011;3369;49.906;8.598;2022-10-31T18:29:15;5.10;;;3.70;;
6665;SDS011;3369;49.906;8.598;2022-10-31T18:31:41;4.37;;;3.47;;
6665;SDS011;3369;49.906;8.598;2022-10-31T18:34:07;6.10;;;3.67;;
6665;SDS011;3369;49.906;8.598;2022-10-31T18:36:33;4.83;;;4.30;;
6665;SDS011;3369;49.906;8.598;2022-10-31T18:38:59;5.60;;;4.83;;